createdAt,value
2018-11-11T00:00:25.666Z,96505.00
2018-11-11T00:02:55.791Z,96502.00
2018-11-11T00:05:25.579Z,96509.00
2018-11-11T00:07:58.820Z,96524.00
2018-11-11T00:10:28.575Z,96527.00
2018-11-11T00:12:59.897Z,96528.00
2018-11-11T00:15:31.293Z,96530.00
2018-11-11T00:18:04.044Z,96530.00
2018-11-11T00:20:34.025Z,96528.00
2018-11-11T00:23:03.734Z,96519.00
2018-11-11T00:25:33.562Z,96521.00
2018-11-11T00:28:04.014Z,96523.00
2018-11-11T00:30:33.740Z,96528.00
2018-11-11T00:33:03.515Z,96535.00
2018-11-11T00:35:33.213Z,96534.00
2018-11-11T00:38:04.975Z,96531.00
2018-11-11T00:40:34.538Z,96533.00
2018-11-11T00:43:04.631Z,96538.00
2018-11-11T00:45:34.360Z,96531.00
2018-11-11T00:48:04.106Z,96522.00
2018-11-11T00:50:34.125Z,96526.00
2018-11-11T00:53:03.862Z,96525.00
2018-11-11T00:55:38.630Z,96535.00
2018-11-11T00:58:08.631Z,96557.00
2018-11-11T01:00:38.407Z,96554.00
2018-11-11T01:03:08.089Z,96561.00
2018-11-11T01:05:37.806Z,96568.00
2018-11-11T01:08:09.673Z,96567.00
2018-11-11T01:10:39.280Z,96559.00
2018-11-11T01:13:08.936Z,96559.00
2018-11-11T01:15:38.708Z,96552.00
2018-11-11T01:18:08.347Z,96541.00
2018-11-11T01:20:38.047Z,96542.00
2018-11-11T01:23:07.896Z,96565.00
2018-11-11T01:25:37.579Z,96575.00
2018-11-11T01:28:16.910Z,96579.00
2018-11-11T01:30:46.767Z,96576.00
2018-11-11T01:33:16.755Z,96576.00
2018-11-11T01:35:46.711Z,96588.00
2018-11-11T01:38:16.446Z,96587.00
2018-11-11T01:40:46.207Z,96578.00
2018-11-11T01:43:15.862Z,96581.00
2018-11-11T01:45:45.656Z,96585.00
2018-11-11T01:48:15.440Z,96586.00
2018-11-11T01:50:45.145Z,96585.00
2018-11-11T01:53:14.946Z,96587.00
2018-11-11T01:55:44.641Z,96594.00
2018-11-11T01:58:22.063Z,96595.00
2018-11-11T02:01:00.428Z,96600.00
2018-11-11T02:03:30.926Z,96606.00
2018-11-11T02:06:07.582Z,96608.00
2018-11-11T02:08:37.960Z,96611.00
2018-11-11T02:11:07.651Z,96611.00
2018-11-11T02:13:37.259Z,96614.00
2018-11-11T02:16:07.823Z,96608.00
2018-11-11T02:18:37.620Z,96605.00
2018-11-11T02:21:07.836Z,96614.00
2018-11-11T02:23:37.682Z,96622.00
2018-11-11T02:26:07.711Z,96615.00
2018-11-11T02:28:37.576Z,96605.00
2018-11-11T02:31:07.713Z,96602.00
2018-11-11T02:33:37.521Z,96593.00
2018-11-11T02:36:25.266Z,96594.00
2018-11-11T02:38:55.494Z,96605.00
2018-11-11T02:41:25.270Z,96610.00
2018-11-11T02:43:54.962Z,96607.00
2018-11-11T02:46:24.701Z,96592.00
2018-11-11T02:48:54.410Z,96584.00
2018-11-11T02:51:34.501Z,96566.00
2018-11-11T02:54:04.299Z,96543.00
2018-11-11T02:56:33.894Z,96542.00
2018-11-11T02:59:03.679Z,96533.00
2018-11-11T03:01:33.396Z,96536.00
2018-11-11T03:04:03.142Z,96543.00
2018-11-11T03:06:33.064Z,96527.00
2018-11-11T03:09:02.836Z,96518.00
2018-11-11T03:11:32.540Z,96512.00
2018-11-11T03:14:02.253Z,96486.00
2018-11-11T03:16:31.971Z,96464.00
2018-11-11T03:19:01.747Z,96455.00
2018-11-11T03:21:31.607Z,96450.00
2018-11-11T03:24:01.835Z,96461.00
2018-11-11T03:26:31.785Z,96476.00
2018-11-11T03:29:01.567Z,96504.00
2018-11-11T03:31:31.215Z,96503.00
2018-11-11T03:34:01.447Z,96495.00
2018-11-11T03:36:31.099Z,96505.00
2018-11-11T03:39:04.771Z,96519.00
2018-11-11T03:41:34.578Z,96522.00
2018-11-11T03:44:04.470Z,96528.00
2018-11-11T03:46:34.253Z,96530.00
2018-11-11T03:49:05.256Z,96527.00
2018-11-11T03:51:35.073Z,96528.00
2018-11-11T03:54:23.042Z,96526.00
2018-11-11T03:56:52.751Z,96524.00
2018-11-11T03:59:24.510Z,96535.00
2018-11-11T04:01:56.808Z,96544.00
2018-11-11T04:04:26.724Z,96541.00
2018-11-11T04:06:56.484Z,96540.00
2018-11-11T04:09:26.391Z,96552.00
2018-11-11T04:11:56.131Z,96560.00
2018-11-11T04:14:25.852Z,96561.00
2018-11-11T04:16:55.571Z,96563.00
2018-11-11T04:19:25.213Z,96559.00
2018-11-11T04:21:54.936Z,96561.00
2018-11-11T04:24:24.728Z,96552.00
2018-11-11T04:26:54.470Z,96555.00
2018-11-11T04:29:24.190Z,96566.00
2018-11-11T04:31:53.934Z,96550.00
2018-11-11T04:34:23.763Z,96543.00
2018-11-11T04:36:53.491Z,96542.00
2018-11-11T04:39:23.218Z,96547.00
2018-11-11T04:41:52.853Z,96535.00
2018-11-11T04:44:22.637Z,96523.00
2018-11-11T04:46:52.399Z,96539.00
2018-11-11T04:49:26.134Z,96538.00
2018-11-11T04:51:55.959Z,96546.00
2018-11-11T04:54:25.787Z,96536.00
2018-11-11T04:56:55.606Z,96541.00
2018-11-11T04:59:25.328Z,96543.00
2018-11-11T05:01:55.126Z,96537.00
2018-11-11T05:04:24.848Z,96533.00
2018-11-11T05:06:54.558Z,96537.00
2018-11-11T05:09:24.322Z,96550.00
2018-11-11T05:12:07.639Z,96559.00
2018-11-11T05:14:37.459Z,96553.00
2018-11-11T05:17:07.449Z,96569.00
2018-11-11T05:19:40.412Z,96576.00
2018-11-11T05:22:10.179Z,96569.00
2018-11-11T05:24:40.046Z,96564.00
2018-11-11T05:27:09.839Z,96586.00
2018-11-11T05:29:39.647Z,96595.00
2018-11-11T05:32:15.083Z,96577.00
2018-11-11T05:34:45.466Z,96558.00
2018-11-11T05:37:16.135Z,96559.00
2018-11-11T05:39:46.168Z,96573.00
2018-11-11T05:42:15.823Z,96570.00
2018-11-11T05:44:49.607Z,96563.00
2018-11-11T05:47:19.283Z,96598.00
2018-11-11T05:49:48.965Z,96616.00
2018-11-11T05:52:19.916Z,96623.00
2018-11-11T05:54:49.615Z,96623.00
2018-11-11T05:57:19.374Z,96619.00
2018-11-11T05:59:49.077Z,96633.00
2018-11-11T06:02:18.787Z,96641.00
2018-11-11T06:04:48.655Z,96632.00
2018-11-11T06:07:19.019Z,96643.00
2018-11-11T06:09:48.683Z,96657.00
2018-11-11T06:12:18.483Z,96650.00
2018-11-11T06:14:48.297Z,96636.00
2018-11-11T06:17:17.928Z,96640.00
2018-11-11T06:19:47.569Z,96643.00
2018-11-11T06:22:19.416Z,96654.00
2018-11-11T06:24:50.690Z,96658.00
2018-11-11T06:27:20.778Z,96670.00
2018-11-11T06:29:50.396Z,96679.00
2018-11-11T06:32:20.050Z,96697.00
2018-11-11T06:34:49.718Z,96702.00
2018-11-11T06:37:20.386Z,96694.00
2018-11-11T06:39:50.112Z,96693.00
2018-11-11T06:42:19.790Z,96698.00
2018-11-11T06:44:49.555Z,96704.00
2018-11-11T06:47:20.200Z,96709.00
2018-11-11T06:49:49.955Z,96709.00
2018-11-11T06:52:19.726Z,96708.00
2018-11-11T06:54:50.304Z,96720.00
2018-11-11T06:57:20.624Z,96736.00
2018-11-11T06:59:50.429Z,96737.00
2018-11-11T07:02:20.175Z,96742.00
2018-11-11T07:04:50.903Z,96745.00
2018-11-11T07:07:20.557Z,96748.00
2018-11-11T07:09:50.350Z,96752.00
2018-11-11T07:12:20.473Z,96741.00
2018-11-11T07:14:50.535Z,96727.00
2018-11-11T07:17:20.157Z,96738.00
2018-11-11T07:19:49.878Z,96742.00
2018-11-11T07:22:19.560Z,96750.00
2018-11-11T07:24:49.994Z,96753.00
2018-11-11T07:27:20.838Z,96748.00
2018-11-11T07:29:50.611Z,96745.00
2018-11-11T07:32:20.427Z,96754.00
2018-11-11T07:34:50.372Z,96759.00
2018-11-11T07:37:27.120Z,96763.00
2018-11-11T07:40:08.290Z,96773.00
2018-11-11T07:42:38.136Z,96782.00
2018-11-11T07:45:08.015Z,96789.00
2018-11-11T07:47:39.240Z,96805.00
2018-11-11T07:50:21.274Z,96809.00
2018-11-11T07:52:51.764Z,96815.00
2018-11-11T07:55:21.813Z,96807.00
2018-11-11T07:57:51.781Z,96810.00
2018-11-11T08:00:22.348Z,96800.00
2018-11-11T08:02:52.539Z,96803.00
2018-11-11T08:05:22.403Z,96810.00
2018-11-11T08:07:52.671Z,96804.00
2018-11-11T08:10:39.180Z,96819.00
2018-11-11T08:13:33.541Z,96827.00
2018-11-11T08:16:03.414Z,96846.00
2018-11-11T08:18:33.076Z,96863.00
2018-11-11T08:21:16.566Z,96870.00
2018-11-11T08:23:46.302Z,96861.00
2018-11-11T08:26:27.632Z,96864.00
2018-11-11T08:28:57.346Z,96880.00
2018-11-11T08:31:27.062Z,96876.00
2018-11-11T08:34:00.779Z,96866.00
2018-11-11T08:36:30.505Z,96871.00
2018-11-11T08:39:00.793Z,96876.00
2018-11-11T08:41:30.486Z,96879.00
2018-11-11T08:44:00.386Z,96869.00
2018-11-11T08:46:30.193Z,96859.00
2018-11-11T08:48:59.846Z,96844.00
2018-11-11T08:51:29.666Z,96835.00
2018-11-11T08:53:59.451Z,96837.00
2018-11-11T08:56:58.322Z,96849.00
2018-11-11T08:59:28.604Z,96838.00
2018-11-11T09:01:58.283Z,96836.00
2018-11-11T09:04:29.944Z,96866.00
2018-11-11T09:06:59.616Z,96871.00
2018-11-11T09:09:29.328Z,96856.00
2018-11-11T09:12:04.672Z,96854.00
2018-11-11T09:14:34.473Z,96851.00
2018-11-11T09:17:04.216Z,96850.00
2018-11-11T09:19:40.450Z,96857.00
2018-11-11T09:22:10.164Z,96871.00
2018-11-11T09:24:50.438Z,96884.00
2018-11-11T09:27:21.297Z,96884.00
2018-11-11T09:29:51.070Z,96868.00
2018-11-11T09:32:31.387Z,96872.00
2018-11-11T09:35:03.224Z,96878.00
2018-11-11T09:37:32.970Z,96869.00
2018-11-11T09:40:04.506Z,96853.00
2018-11-11T09:42:34.938Z,96849.00
2018-11-11T09:45:05.563Z,96868.00
2018-11-11T09:47:39.133Z,96870.00
2018-11-11T09:50:27.644Z,96880.00
2018-11-11T09:52:57.373Z,96878.00
2018-11-11T09:55:27.338Z,96874.00
2018-11-11T09:58:03.399Z,96866.00
2018-11-11T10:00:39.604Z,96859.00
2018-11-11T10:03:21.573Z,96859.00
2018-11-11T10:06:06.181Z,96853.00
2018-11-11T10:08:58.416Z,96859.00
2018-11-11T10:13:41.338Z,96866.00
2018-11-11T10:16:16.566Z,96850.00
2018-11-11T10:18:51.999Z,96848.00
2018-11-11T10:22:26.977Z,96854.00
2018-11-11T10:25:03.925Z,96862.00
2018-11-11T10:27:49.864Z,96865.00
2018-11-11T10:30:26.291Z,96863.00
2018-11-11T10:33:18.061Z,96864.00
2018-11-11T10:35:57.467Z,96865.00
2018-11-11T10:38:35.057Z,96870.00
2018-11-11T10:41:17.129Z,96866.00
2018-11-11T10:43:58.506Z,96857.00
2018-11-11T10:47:36.554Z,96859.00
2018-11-11T10:50:08.981Z,96854.00
2018-11-11T10:52:39.167Z,96862.00
2018-11-11T10:55:09.214Z,96855.00
2018-11-11T10:57:38.942Z,96852.00
2018-11-11T11:00:14.004Z,96855.00
2018-11-11T11:03:08.610Z,96856.00
2018-11-11T11:05:42.343Z,96850.00
2018-11-11T11:08:12.134Z,96835.00
2018-11-11T11:10:43.192Z,96838.00
2018-11-11T11:13:13.295Z,96836.00
2018-11-11T11:15:45.343Z,96833.00
2018-11-11T11:18:34.479Z,96838.00
2018-11-11T11:21:04.643Z,96826.00
2018-11-11T11:23:35.353Z,96819.00
2018-11-11T11:26:05.459Z,96820.00
2018-11-11T11:28:35.304Z,96812.00
2018-11-11T11:31:05.228Z,96811.00
2018-11-11T11:33:36.127Z,96818.00
2018-11-11T11:36:06.058Z,96804.00
2018-11-11T11:38:36.170Z,96795.00
2018-11-11T11:41:09.146Z,96804.00
2018-11-11T11:43:40.180Z,96797.00
2018-11-11T11:46:10.234Z,96788.00
2018-11-11T11:48:40.131Z,96783.00
2018-11-11T11:51:28.014Z,96780.00
2018-11-11T11:54:06.107Z,96788.00
2018-11-11T11:56:37.143Z,96793.00
2018-11-11T11:59:08.301Z,96796.00
2018-11-11T12:01:38.357Z,96794.00
2018-11-11T12:04:08.274Z,96793.00
2018-11-11T12:06:38.060Z,96803.00
2018-11-11T12:09:17.903Z,96812.00
2018-11-11T12:11:47.660Z,96808.00
2018-11-11T12:14:17.497Z,96806.00
2018-11-11T12:16:47.346Z,96806.00
2018-11-11T12:19:30.843Z,96806.00
2018-11-11T12:22:01.055Z,96808.00
2018-11-11T12:24:30.778Z,96815.00
2018-11-11T12:27:03.660Z,96806.00
2018-11-11T12:29:53.510Z,96803.00
2018-11-11T12:32:24.251Z,96793.00
2018-11-11T12:34:54.316Z,96791.00
2018-11-11T12:37:23.993Z,96795.00
2018-11-11T12:39:54.053Z,96797.00
2018-11-11T12:42:23.603Z,96805.00
2018-11-11T12:44:53.933Z,96805.00
2018-11-11T12:47:24.168Z,96805.00
2018-11-11T12:50:16.317Z,96799.00
2018-11-11T12:52:46.824Z,96802.00
2018-11-11T12:55:16.900Z,96801.00
2018-11-11T12:57:46.637Z,96795.00
2018-11-11T13:00:16.812Z,96798.00
2018-11-11T13:02:46.651Z,96802.00
2018-11-11T13:05:16.463Z,96808.00
2018-11-11T13:07:48.004Z,96807.00
2018-11-11T13:10:17.910Z,96806.00
2018-11-11T13:15:40.198Z,96806.00
2018-11-11T13:21:15.523Z,96804.00
2018-11-11T13:23:45.228Z,96812.00
2018-11-11T13:26:15.673Z,96807.00
2018-11-11T13:28:45.420Z,96814.00
2018-11-11T13:31:15.421Z,96817.00
2018-11-11T13:33:45.222Z,96820.00
2018-11-11T13:36:15.100Z,96825.00
2018-11-11T13:41:50.751Z,96827.00
2018-11-11T13:44:20.503Z,96831.00
2018-11-11T13:46:50.530Z,96835.00
2018-11-11T13:49:20.402Z,96834.00
2018-11-11T13:51:50.205Z,96834.00
2018-11-11T13:54:20.504Z,96831.00
2018-11-11T13:56:50.273Z,96834.00
2018-11-11T13:59:20.763Z,96832.00
2018-11-11T14:01:55.207Z,96837.00
2018-11-11T14:04:25.452Z,96833.00
2018-11-11T14:06:55.273Z,96830.00
2018-11-11T14:09:25.052Z,96833.00
2018-11-11T14:11:55.180Z,96834.00
2018-11-11T14:14:25.179Z,96827.00
2018-11-11T14:16:56.899Z,96823.00
2018-11-11T14:19:26.727Z,96830.00
2018-11-11T14:21:56.513Z,96834.00
2018-11-11T14:24:26.306Z,96839.00
2018-11-11T14:26:56.396Z,96840.00
2018-11-11T14:29:26.175Z,96834.00
2018-11-11T14:31:55.906Z,96838.00
2018-11-11T14:34:25.840Z,96836.00
2018-11-11T14:36:55.731Z,96830.00
2018-11-11T14:39:25.615Z,96828.00
2018-11-11T14:41:55.402Z,96833.00
2018-11-11T14:44:36.029Z,96827.00
2018-11-11T14:47:07.256Z,96831.00
2018-11-11T14:49:36.971Z,96832.00
2018-11-11T14:52:08.788Z,96830.00
2018-11-11T14:54:38.440Z,96831.00
2018-11-11T14:57:32.763Z,96829.00
2018-11-11T15:00:02.761Z,96828.00
2018-11-11T15:02:33.360Z,96835.00
2018-11-11T15:05:03.429Z,96832.00
2018-11-11T15:07:33.244Z,96826.00
2018-11-11T15:10:03.217Z,96819.00
2018-11-11T15:12:33.041Z,96812.00
2018-11-11T15:15:02.783Z,96816.00
2018-11-11T15:17:32.512Z,96806.00
2018-11-11T15:20:02.387Z,96810.00
2018-11-11T15:22:32.022Z,96810.00
2018-11-11T15:25:01.654Z,96807.00
2018-11-11T15:27:31.393Z,96800.00
2018-11-11T15:30:01.119Z,96794.00
2018-11-11T15:32:30.754Z,96786.00
2018-11-11T15:35:00.602Z,96788.00
2018-11-11T15:37:30.481Z,96797.00
2018-11-11T15:40:00.427Z,96796.00
2018-11-11T15:42:30.499Z,96794.00
2018-11-11T15:45:00.971Z,96790.00
2018-11-11T15:47:31.518Z,96792.00
2018-11-11T15:50:01.296Z,96785.00
2018-11-11T15:52:32.412Z,96788.00
2018-11-11T15:55:04.460Z,96779.00
2018-11-11T15:57:37.702Z,96773.00
2018-11-11T16:00:20.660Z,96762.00
2018-11-11T16:02:50.413Z,96756.00
2018-11-11T16:05:22.403Z,96750.00
2018-11-11T16:07:53.411Z,96759.00
2018-11-11T16:10:24.448Z,96772.00
2018-11-11T16:12:54.447Z,96787.00
2018-11-11T16:15:27.718Z,96801.00
2018-11-11T16:17:59.711Z,96811.00
2018-11-11T16:20:30.346Z,96810.00
2018-11-11T16:23:02.820Z,96809.00
2018-11-11T16:28:21.318Z,96819.00
2018-11-11T16:30:52.759Z,96819.00
2018-11-11T16:33:41.955Z,96824.00
2018-11-11T16:36:11.654Z,96814.00
2018-11-11T16:38:41.420Z,96813.00
2018-11-11T16:41:11.389Z,96813.00
2018-11-11T16:43:41.042Z,96819.00
2018-11-11T16:46:10.751Z,96822.00
2018-11-11T16:48:40.538Z,96825.00
2018-11-11T16:51:11.670Z,96833.00
2018-11-11T16:53:42.421Z,96827.00
2018-11-11T16:56:18.339Z,96822.00
2018-11-11T16:59:12.657Z,96825.00
2018-11-11T17:01:45.292Z,96825.00
2018-11-11T17:04:15.710Z,96832.00
2018-11-11T17:06:47.092Z,96830.00
2018-11-11T17:09:18.391Z,96829.00
2018-11-11T17:12:00.531Z,96840.00
2018-11-11T17:14:35.453Z,96846.00
2018-11-11T17:17:05.966Z,96851.00
2018-11-11T17:19:43.543Z,96853.00
2018-11-11T17:22:22.687Z,96855.00
2018-11-11T17:24:54.845Z,96862.00
2018-11-11T17:27:43.730Z,96866.00
2018-11-11T17:30:17.667Z,96875.00
2018-11-11T17:32:48.602Z,96876.00
2018-11-11T17:35:18.785Z,96890.00
2018-11-11T17:37:48.932Z,96904.00
2018-11-11T17:40:23.315Z,96902.00
2018-11-11T17:43:05.658Z,96908.00
2018-11-11T17:45:42.902Z,96903.00
2018-11-11T17:48:13.304Z,96905.00
2018-11-11T17:50:43.911Z,96915.00
2018-11-11T17:53:18.753Z,96912.00
2018-11-11T17:55:49.189Z,96911.00
2018-11-11T17:58:22.663Z,96911.00
2018-11-11T18:00:53.958Z,96929.00
2018-11-11T18:03:23.817Z,96941.00
2018-11-11T18:05:54.456Z,96945.00
2018-11-11T18:08:24.422Z,96948.00
2018-11-11T18:10:55.327Z,96951.00
2018-11-11T18:13:26.947Z,96949.00
2018-11-11T18:16:01.798Z,96947.00
2018-11-11T18:18:36.422Z,96949.00
2018-11-11T18:21:06.501Z,96949.00
2018-11-11T18:23:36.443Z,96951.00
2018-11-11T18:26:06.964Z,96952.00
2018-11-11T18:28:36.773Z,96957.00
2018-11-11T18:31:07.576Z,96960.00
2018-11-11T18:33:37.956Z,96968.00
2018-11-11T18:36:08.377Z,96964.00
2018-11-11T18:38:39.295Z,96967.00
2018-11-11T18:41:09.231Z,96969.00
2018-11-11T18:43:39.471Z,96974.00
2018-11-11T18:46:11.147Z,96974.00
2018-11-11T18:48:56.268Z,96977.00
2018-11-11T18:51:28.176Z,96982.00
2018-11-11T18:53:57.957Z,96983.00
2018-11-11T18:56:32.245Z,96981.00
2018-11-11T18:59:02.470Z,96982.00
2018-11-11T19:01:32.189Z,96994.00
2018-11-11T19:04:03.156Z,97004.00
2018-11-11T19:06:33.086Z,97002.00
2018-11-11T19:09:03.118Z,97001.00
2018-11-11T19:11:33.798Z,97009.00
2018-11-11T19:14:04.457Z,97009.00
2018-11-11T19:16:34.474Z,97016.00
2018-11-11T19:19:05.114Z,97015.00
2018-11-11T19:21:35.873Z,97018.00
2018-11-11T19:24:06.752Z,97021.00
2018-11-11T19:26:37.483Z,97023.00
2018-11-11T19:29:08.191Z,97025.00
2018-11-11T19:31:38.133Z,97030.00
2018-11-11T19:34:24.447Z,97031.00
2018-11-11T19:36:54.298Z,97030.00
2018-11-11T19:39:29.385Z,97048.00
2018-11-11T19:41:59.206Z,97052.00
2018-11-11T19:44:29.933Z,97061.00
2018-11-11T19:47:18.667Z,97068.00
2018-11-11T19:49:48.640Z,97070.00
2018-11-11T19:52:18.400Z,97072.00
2018-11-11T19:54:48.223Z,97078.00
2018-11-11T19:57:26.174Z,97080.00
2018-11-11T19:59:56.667Z,97090.00
2018-11-11T20:02:26.571Z,97096.00
2018-11-11T20:04:56.307Z,97094.00
2018-11-11T20:07:26.083Z,97095.00
2018-11-11T20:09:55.983Z,97102.00
2018-11-11T20:12:27.238Z,97101.00
2018-11-11T20:14:56.992Z,97098.00
2018-11-11T20:17:26.738Z,97095.00
2018-11-11T20:20:00.878Z,97107.00
2018-11-11T20:22:30.675Z,97099.00
2018-11-11T20:25:00.446Z,97105.00
2018-11-11T20:27:30.230Z,97107.00
2018-11-11T20:30:00.082Z,97106.00
2018-11-11T20:32:29.794Z,97109.00
2018-11-11T20:34:59.622Z,97109.00
2018-11-11T20:37:41.428Z,97109.00
2018-11-11T20:40:22.023Z,97117.00
2018-11-11T20:42:56.856Z,97119.00
2018-11-11T20:45:31.672Z,97116.00
2018-11-11T20:48:11.657Z,97118.00
2018-11-11T20:50:42.779Z,97122.00
2018-11-11T20:53:13.188Z,97117.00
2018-11-11T20:55:53.548Z,97117.00
2018-11-11T20:58:28.034Z,97116.00
2018-11-11T21:01:03.541Z,97109.00
2018-11-11T21:03:47.830Z,97098.00
2018-11-11T21:06:21.307Z,97113.00
2018-11-11T21:08:57.963Z,97106.00
2018-11-11T21:11:27.809Z,97110.00
2018-11-11T21:14:06.683Z,97124.00
2018-11-11T21:16:39.201Z,97124.00
2018-11-11T21:19:15.741Z,97124.00
2018-11-11T21:21:52.402Z,97129.00
2018-11-11T21:24:28.020Z,97136.00
2018-11-11T21:27:05.600Z,97142.00
2018-11-11T21:29:36.520Z,97130.00
2018-11-11T21:32:17.019Z,97127.00
2018-11-11T21:34:59.590Z,97126.00
2018-11-11T21:37:34.192Z,97116.00
2018-11-11T21:40:04.578Z,97123.00
2018-11-11T21:42:40.464Z,97131.00
2018-11-11T21:45:13.924Z,97125.00
2018-11-11T21:47:49.597Z,97116.00
2018-11-11T21:50:21.444Z,97121.00
2018-11-11T21:53:41.347Z,97121.00
2018-11-11T21:56:11.553Z,97116.00
2018-11-11T21:58:42.675Z,97114.00
2018-11-11T22:01:27.233Z,97112.00
2018-11-11T22:04:11.476Z,97118.00
2018-11-11T22:06:44.227Z,97120.00
2018-11-11T22:09:23.265Z,97120.00
2018-11-11T22:11:58.100Z,97116.00
2018-11-11T22:14:28.348Z,97116.00
2018-11-11T22:17:10.128Z,97111.00
2018-11-11T22:19:42.850Z,97111.00
2018-11-11T22:22:24.050Z,97100.00
2018-11-11T22:24:56.096Z,97095.00
2018-11-11T22:27:27.296Z,97096.00
2018-11-11T22:30:03.534Z,97100.00
2018-11-11T22:32:46.230Z,97103.00
2018-11-11T22:35:18.037Z,97098.00
2018-11-11T22:37:50.349Z,97104.00
2018-11-11T22:40:21.993Z,97107.00
2018-11-11T22:42:56.214Z,97110.00
2018-11-11T22:45:27.345Z,97108.00
2018-11-11T22:48:02.369Z,97115.00
2018-11-11T22:50:32.513Z,97121.00
2018-11-11T22:53:09.282Z,97131.00
2018-11-11T22:55:41.073Z,97137.00
2018-11-11T22:58:11.551Z,97142.00
2018-11-11T23:00:49.772Z,97139.00
2018-11-11T23:03:30.570Z,97154.00
2018-11-11T23:06:08.663Z,97159.00
2018-11-11T23:08:38.615Z,97156.00
2018-11-11T23:11:09.200Z,97162.00
2018-11-11T23:13:40.259Z,97165.00
2018-11-11T23:16:19.629Z,97160.00
2018-11-11T23:18:49.850Z,97153.00
2018-11-11T23:21:26.537Z,97151.00
2018-11-11T23:24:02.648Z,97151.00
2018-11-11T23:26:32.893Z,97158.00
2018-11-11T23:29:04.542Z,97149.00
2018-11-11T23:31:41.575Z,97148.00
2018-11-11T23:34:11.427Z,97152.00
2018-11-11T23:36:41.147Z,97159.00
2018-11-11T23:39:11.446Z,97157.00
2018-11-11T23:41:50.742Z,97149.00
2018-11-11T23:44:20.615Z,97141.00
2018-11-11T23:46:54.150Z,97136.00
2018-11-11T23:49:23.922Z,97132.00
2018-11-11T23:51:53.971Z,97132.00
2018-11-11T23:54:24.827Z,97135.00
2018-11-11T23:56:54.484Z,97141.00
2018-11-11T23:59:24.211Z,97137.00
